sensor_id;sensor_type;location;lat;lon;timestamp;pressure;altitude;pressure_sealevel;temperature;humidity
76114;BME280;64845;53.086;5.834;2023-04-24T00:01:21;99730.28;;;11.03;78.64
76114;BME280;64845;53.086;5.834;2023-04-24T00:03:46;99725.91;;;11.02;78.67
76114;BME280;64845;53.086;5.834;2023-04-24T00:06:12;99728.56;;;11.02;78.55
76114;BME280;64845;53.086;5.834;2023-04-24T00:08:37;99724.06;;;11.02;78.62
76114;BME280;64845;53.086;5.834;2023-04-24T00:11:03;99722.34;;;11.01;79.02
76114;BME280;64845;53.086;5.834;2023-04-24T00:13:28;99710.72;;;11.02;79.08
76114;BME280;64845;53.086;5.834;2023-04-24T00:15:55;99707.19;;;11.02;78.90
76114;BME280;64845;53.086;5.834;2023-04-24T00:18:20;99710.72;;;11.02;78.95
76114;BME280;64845;53.086;5.834;2023-04-24T00:20:46;99713.50;;;11.01;78.87
76114;BME280;64845;53.086;5.834;2023-04-24T00:23:12;99706.44;;;11.00;79.19
76114;BME280;64845;53.086;5.834;2023-04-24T00:25:37;99709.00;;;11.01;79.15
76114;BME280;64845;53.086;5.834;2023-04-24T00:28:02;99715.38;;;10.99;79.25
76114;BME280;64845;53.086;5.834;2023-04-24T00:30:28;99716.34;;;10.98;79.13
76114;BME280;64845;53.086;5.834;2023-04-24T00:32:53;99702.13;;;10.97;78.96
76114;BME280;64845;53.086;5.834;2023-04-24T00:35:19;99698.69;;;10.95;79.03
76114;BME280;64845;53.086;5.834;2023-04-24T00:37:45;99703.94;;;10.97;79.15
76114;BME280;64845;53.086;5.834;2023-04-24T00:40:10;99708.50;;;10.95;79.17
76114;BME280;64845;53.086;5.834;2023-04-24T00:42:36;99702.31;;;10.94;79.32
76114;BME280;64845;53.086;5.834;2023-04-24T00:45:02;99705.94;;;10.93;79.13
76114;BME280;64845;53.086;5.834;2023-04-24T00:47:28;99695.31;;;10.92;79.16
76114;BME280;64845;53.086;5.834;2023-04-24T00:49:54;99700.66;;;10.92;79.11
76114;BME280;64845;53.086;5.834;2023-04-24T00:52:20;99696.28;;;10.91;79.06
76114;BME280;64845;53.086;5.834;2023-04-24T00:54:45;99697.31;;;10.88;78.98
76114;BME280;64845;53.086;5.834;2023-04-24T00:57:12;99697.44;;;10.86;79.28
76114;BME280;64845;53.086;5.834;2023-04-24T00:59:39;99693.97;;;10.84;79.19
76114;BME280;64845;53.086;5.834;2023-04-24T01:02:07;99693.22;;;10.82;79.28
76114;BME280;64845;53.086;5.834;2023-04-24T01:04:32;99691.50;;;10.81;79.19
76114;BME280;64845;53.086;5.834;2023-04-24T01:06:58;99699.50;;;10.81;79.32
76114;BME280;64845;53.086;5.834;2023-04-24T01:09:24;99696.16;;;10.78;79.37
76114;BME280;64845;53.086;5.834;2023-04-24T01:11:50;99698.13;;;10.74;79.42
76114;BME280;64845;53.086;5.834;2023-04-24T01:14:16;99692.88;;;10.72;79.40
76114;BME280;64845;53.086;5.834;2023-04-24T01:16:41;99692.97;;;10.71;79.30
76114;BME280;64845;53.086;5.834;2023-04-24T01:19:07;99696.78;;;10.67;79.51
76114;BME280;64845;53.086;5.834;2023-04-24T01:21:37;99699.63;;;10.64;79.26
76114;BME280;64845;53.086;5.834;2023-04-24T01:24:04;99693.69;;;10.58;79.39
76114;BME280;64845;53.086;5.834;2023-04-24T01:26:30;99692.22;;;10.53;79.76
76114;BME280;64845;53.086;5.834;2023-04-24T01:28:56;99690.00;;;10.45;79.83
76114;BME280;64845;53.086;5.834;2023-04-24T01:31:21;99702.75;;;10.40;79.73
76114;BME280;64845;53.086;5.834;2023-04-24T01:33:47;99698.47;;;10.36;79.91
76114;BME280;64845;53.086;5.834;2023-04-24T01:36:13;99695.22;;;10.31;79.63
76114;BME280;64845;53.086;5.834;2023-04-24T01:38:39;99698.06;;;10.27;80.03
76114;BME280;64845;53.086;5.834;2023-04-24T01:41:04;99695.63;;;10.23;80.17
76114;BME280;64845;53.086;5.834;2023-04-24T01:43:30;99688.94;;;10.16;80.30
76114;BME280;64845;53.086;5.834;2023-04-24T01:45:56;99691.78;;;10.12;80.16
76114;BME280;64845;53.086;5.834;2023-04-24T01:48:22;99694.78;;;10.06;80.42
76114;BME280;64845;53.086;5.834;2023-04-24T01:50:47;99698.50;;;10.04;80.67
76114;BME280;64845;53.086;5.834;2023-04-24T01:53:12;99694.09;;;10.03;80.60
76114;BME280;64845;53.086;5.834;2023-04-24T01:55:38;99704.81;;;10.01;80.52
76114;BME280;64845;53.086;5.834;2023-04-24T01:58:03;99704.09;;;9.99;80.95
76114;BME280;64845;53.086;5.834;2023-04-24T02:00:29;99709.56;;;9.96;80.64
76114;BME280;64845;53.086;5.834;2023-04-24T02:02:54;99708.03;;;9.92;81.08
76114;BME280;64845;53.086;5.834;2023-04-24T02:05:20;99706.38;;;9.89;81.07
76114;BME280;64845;53.086;5.834;2023-04-24T02:07:45;99698.38;;;9.89;81.09
76114;BME280;64845;53.086;5.834;2023-04-24T02:10:11;99698.56;;;9.86;81.06
76114;BME280;64845;53.086;5.834;2023-04-24T02:12:36;99705.78;;;9.84;81.09
76114;BME280;64845;53.086;5.834;2023-04-24T02:15:02;99701.53;;;9.80;81.08
76114;BME280;64845;53.086;5.834;2023-04-24T02:17:28;99708.75;;;9.78;81.59
76114;BME280;64845;53.086;5.834;2023-04-24T02:19:53;99707.13;;;9.75;81.35
76114;BME280;64845;53.086;5.834;2023-04-24T02:22:18;99706.25;;;9.75;81.86
76114;BME280;64845;53.086;5.834;2023-04-24T02:24:44;99716.06;;;9.74;81.77
76114;BME280;64845;53.086;5.834;2023-04-24T02:27:10;99717.00;;;9.73;81.84
76114;BME280;64845;53.086;5.834;2023-04-24T02:29:36;99717.06;;;9.72;82.00
76114;BME280;64845;53.086;5.834;2023-04-24T02:32:01;99724.31;;;9.70;82.11
76114;BME280;64845;53.086;5.834;2023-04-24T02:34:27;99722.50;;;9.70;81.90
76114;BME280;64845;53.086;5.834;2023-04-24T02:36:52;99725.16;;;9.70;81.92
76114;BME280;64845;53.086;5.834;2023-04-24T02:39:19;99726.03;;;9.71;82.22
76114;BME280;64845;53.086;5.834;2023-04-24T02:41:45;99727.94;;;9.68;82.21
76114;BME280;64845;53.086;5.834;2023-04-24T02:44:10;99719.38;;;9.62;81.94
76114;BME280;64845;53.086;5.834;2023-04-24T02:46:36;99722.28;;;9.57;82.27
76114;BME280;64845;53.086;5.834;2023-04-24T02:49:01;99722.44;;;9.54;82.20
76114;BME280;64845;53.086;5.834;2023-04-24T02:51:27;99725.44;;;9.48;82.01
76114;BME280;64845;53.086;5.834;2023-04-24T02:53:53;99724.81;;;9.43;82.52
76114;BME280;64845;53.086;5.834;2023-04-24T02:56:18;99732.97;;;9.40;82.14
76114;BME280;64845;53.086;5.834;2023-04-24T02:58:43;99727.00;;;9.34;82.29
76114;BME280;64845;53.086;5.834;2023-04-24T03:01:09;99735.94;;;9.33;82.50
76114;BME280;64845;53.086;5.834;2023-04-24T03:03:35;99728.19;;;9.29;82.05
76114;BME280;64845;53.086;5.834;2023-04-24T03:06:01;99733.78;;;9.24;82.87
76114;BME280;64845;53.086;5.834;2023-04-24T03:08:26;99739.09;;;9.24;82.49
76114;BME280;64845;53.086;5.834;2023-04-24T03:10:52;99737.47;;;9.21;82.68
76114;BME280;64845;53.086;5.834;2023-04-24T03:13:17;99734.06;;;9.18;82.98
76114;BME280;64845;53.086;5.834;2023-04-24T03:15:43;99739.41;;;9.18;82.69
76114;BME280;64845;53.086;5.834;2023-04-24T03:18:08;99734.16;;;9.16;82.88
76114;BME280;64845;53.086;5.834;2023-04-24T03:20:34;99741.28;;;9.16;83.06
76114;BME280;64845;53.086;5.834;2023-04-24T03:22:59;99736.09;;;9.13;82.83
76114;BME280;64845;53.086;5.834;2023-04-24T03:25:25;99745.91;;;9.12;83.36
76114;BME280;64845;53.086;5.834;2023-04-24T03:27:50;99753.09;;;9.10;83.21
76114;BME280;64845;53.086;5.834;2023-04-24T03:30:16;99749.66;;;9.08;82.97
76114;BME280;64845;53.086;5.834;2023-04-24T03:32:41;99760.31;;;9.08;83.05
76114;BME280;64845;53.086;5.834;2023-04-24T03:35:07;99746.22;;;9.06;83.32
76114;BME280;64845;53.086;5.834;2023-04-24T03:37:33;99752.41;;;9.06;83.43
76114;BME280;64845;53.086;5.834;2023-04-24T03:39:59;99761.25;;;9.07;83.35
76114;BME280;64845;53.086;5.834;2023-04-24T03:42:24;99762.19;;;9.06;83.43
76114;BME280;64845;53.086;5.834;2023-04-24T03:44:50;99763.13;;;9.05;83.51
76114;BME280;64845;53.086;5.834;2023-04-24T03:47:15;99757.97;;;9.02;83.33
76114;BME280;64845;53.086;5.834;2023-04-24T03:49:40;99765.97;;;9.02;83.33
76114;BME280;64845;53.086;5.834;2023-04-24T03:52:06;99766.97;;;8.99;83.43
76114;BME280;64845;53.086;5.834;2023-04-24T03:54:31;99764.44;;;8.96;83.35
76114;BME280;64845;53.086;5.834;2023-04-24T03:56:56;99771.59;;;8.96;83.59
76114;BME280;64845;53.086;5.834;2023-04-24T03:59:22;99773.38;;;8.95;83.37
76114;BME280;64845;53.086;5.834;2023-04-24T04:01:47;99762.72;;;8.95;83.57
76114;BME280;64845;53.086;5.834;2023-04-24T04:04:13;99778.69;;;8.95;83.72
76114;BME280;64845;53.086;5.834;2023-04-24T04:06:38;99773.59;;;8.90;83.55
76114;BME280;64845;53.086;5.834;2023-04-24T04:09:04;99774.63;;;8.88;83.96
76114;BME280;64845;53.086;5.834;2023-04-24T04:11:29;99774.78;;;8.85;83.44
76114;BME280;64845;53.086;5.834;2023-04-24T04:13:55;99776.56;;;8.84;83.42
76114;BME280;64845;53.086;5.834;2023-04-24T04:16:22;99770.47;;;8.82;83.67
76114;BME280;64845;53.086;5.834;2023-04-24T04:18:47;99782.13;;;8.80;83.64
76114;BME280;64845;53.086;5.834;2023-04-24T04:21:13;99776.88;;;8.78;83.98
76114;BME280;64845;53.086;5.834;2023-04-24T04:23:38;99785.84;;;8.75;83.65
76114;BME280;64845;53.086;5.834;2023-04-24T04:26:05;99788.50;;;8.75;83.51
76114;BME280;64845;53.086;5.834;2023-04-24T04:28:31;99793.03;;;8.73;84.11
76114;BME280;64845;53.086;5.834;2023-04-24T04:30:57;99788.75;;;8.71;83.86
76114;BME280;64845;53.086;5.834;2023-04-24T04:33:23;99805.66;;;8.70;83.98
76114;BME280;64845;53.086;5.834;2023-04-24T04:35:49;99804.84;;;8.68;83.80
76114;BME280;64845;53.086;5.834;2023-04-24T04:38:15;99804.22;;;8.63;83.51
76114;BME280;64845;53.086;5.834;2023-04-24T04:40:42;99809.63;;;8.61;83.71
76114;BME280;64845;53.086;5.834;2023-04-24T04:43:07;99815.94;;;8.58;84.10
76114;BME280;64845;53.086;5.834;2023-04-24T04:45:33;99819.56;;;8.57;83.66
76114;BME280;64845;53.086;5.834;2023-04-24T04:47:59;99823.06;;;8.58;83.71
76114;BME280;64845;53.086;5.834;2023-04-24T04:50:26;99829.31;;;8.57;83.63
76114;BME280;64845;53.086;5.834;2023-04-24T04:52:52;99820.41;;;8.58;83.65
76114;BME280;64845;53.086;5.834;2023-04-24T04:55:17;99827.53;;;8.57;83.63
76114;BME280;64845;53.086;5.834;2023-04-24T04:57:43;99831.97;;;8.57;83.79
76114;BME280;64845;53.086;5.834;2023-04-24T05:00:09;99847.09;;;8.56;83.49
76114;BME280;64845;53.086;5.834;2023-04-24T05:02:35;99837.38;;;8.55;83.61
76114;BME280;64845;53.086;5.834;2023-04-24T05:05:01;99852.47;;;8.55;83.76
76114;BME280;64845;53.086;5.834;2023-04-24T05:07:26;99862.25;;;8.54;84.00
76114;BME280;64845;53.086;5.834;2023-04-24T05:09:51;99865.00;;;8.53;83.72
76114;BME280;64845;53.086;5.834;2023-04-24T05:12:17;99864.13;;;8.52;83.96
76114;BME280;64845;53.086;5.834;2023-04-24T05:14:42;99854.41;;;8.51;83.88
76114;BME280;64845;53.086;5.834;2023-04-24T05:17:08;99861.47;;;8.52;83.86
76114;BME280;64845;53.086;5.834;2023-04-24T05:19:33;99870.38;;;8.51;83.83
76114;BME280;64845;53.086;5.834;2023-04-24T05:22:01;99882.66;;;8.54;84.09
76114;BME280;64845;53.086;5.834;2023-04-24T05:24:28;99875.69;;;8.51;83.65
76114;BME280;64845;53.086;5.834;2023-04-24T05:26:53;99878.34;;;8.51;83.63
76114;BME280;64845;53.086;5.834;2023-04-24T05:29:19;99872.19;;;8.51;83.76
76114;BME280;64845;53.086;5.834;2023-04-24T05:31:44;99889.88;;;8.52;83.72
76114;BME280;64845;53.086;5.834;2023-04-24T05:34:10;99888.16;;;8.51;83.88
76114;BME280;64845;53.086;5.834;2023-04-24T05:36:35;99898.72;;;8.52;83.97
76114;BME280;64845;53.086;5.834;2023-04-24T05:39:00;99913.03;;;8.50;84.02
76114;BME280;64845;53.086;5.834;2023-04-24T05:41:26;99914.84;;;8.47;83.67
76114;BME280;64845;53.086;5.834;2023-04-24T05:43:51;99906.13;;;8.44;83.95
76114;BME280;64845;53.086;5.834;2023-04-24T05:46:16;99916.78;;;8.44;83.95
76114;BME280;64845;53.086;5.834;2023-04-24T05:48:42;99928.38;;;8.43;83.84
76114;BME280;64845;53.086;5.834;2023-04-24T05:51:07;99931.88;;;8.43;83.90
76114;BME280;64845;53.086;5.834;2023-04-24T05:53:33;99934.53;;;8.43;83.47
76114;BME280;64845;53.086;5.834;2023-04-24T05:55:58;99942.66;;;8.40;83.68
76114;BME280;64845;53.086;5.834;2023-04-24T05:58:23;99944.53;;;8.38;83.67
76114;BME280;64845;53.086;5.834;2023-04-24T06:00:49;99949.78;;;8.40;83.40
76114;BME280;64845;53.086;5.834;2023-04-24T06:03:14;99958.75;;;8.37;83.79
76114;BME280;64845;53.086;5.834;2023-04-24T06:05:40;99961.50;;;8.36;83.74
76114;BME280;64845;53.086;5.834;2023-04-24T06:08:06;99962.28;;;8.38;83.49
76114;BME280;64845;53.086;5.834;2023-04-24T06:10:31;99973.88;;;8.37;83.48
76114;BME280;64845;53.086;5.834;2023-04-24T06:12:57;99977.38;;;8.37;83.69
76114;BME280;64845;53.086;5.834;2023-04-24T06:15:29;99979.19;;;8.37;83.55
76114;BME280;64845;53.086;5.834;2023-04-24T06:17:56;99985.44;;;8.36;83.35
76114;BME280;64845;53.086;5.834;2023-04-24T06:20:21;99990.75;;;8.36;83.66
76114;BME280;64845;53.086;5.834;2023-04-24T06:22:46;99986.44;;;8.33;83.40
76114;BME280;64845;53.086;5.834;2023-04-24T06:25:12;99982.97;;;8.31;83.61
76114;BME280;64845;53.086;5.834;2023-04-24T06:27:37;100006.84;;;8.32;83.55
76114;BME280;64845;53.086;5.834;2023-04-24T06:30:03;99998.88;;;8.32;83.48
76114;BME280;64845;53.086;5.834;2023-04-24T06:32:28;100011.56;;;8.26;83.46
76114;BME280;64845;53.086;5.834;2023-04-24T06:34:55;100009.03;;;8.23;83.58
76114;BME280;64845;53.086;5.834;2023-04-24T06:37:21;100006.56;;;8.18;83.46
76114;BME280;64845;53.086;5.834;2023-04-24T06:39:47;100013.78;;;8.14;83.57
76114;BME280;64845;53.086;5.834;2023-04-24T06:42:12;100015.72;;;8.11;83.88
76114;BME280;64845;53.086;5.834;2023-04-24T06:44:37;100016.72;;;8.08;83.57
76114;BME280;64845;53.086;5.834;2023-04-24T06:47:07;100024.72;;;8.08;83.36
76114;BME280;64845;53.086;5.834;2023-04-24T06:49:34;100032.88;;;8.04;83.56
76114;BME280;64845;53.086;5.834;2023-04-24T06:52:00;100030.34;;;8.00;83.34
76114;BME280;64845;53.086;5.834;2023-04-24T06:54:25;100041.09;;;7.97;83.53
76114;BME280;64845;53.086;5.834;2023-04-24T06:56:50;100038.56;;;7.94;83.40
76114;BME280;64845;53.086;5.834;2023-04-24T06:59:17;100046.53;;;7.94;83.33
76114;BME280;64845;53.086;5.834;2023-04-24T07:01:42;100052.91;;;7.90;83.26
76114;BME280;64845;53.086;5.834;2023-04-24T07:04:08;100055.66;;;7.89;83.62
76114;BME280;64845;53.086;5.834;2023-04-24T07:06:33;100060.97;;;7.89;83.74
76114;BME280;64845;53.086;5.834;2023-04-24T07:09:00;100059.22;;;7.88;83.31
76114;BME280;64845;53.086;5.834;2023-04-24T07:11:26;100049.53;;;7.86;83.30
76114;BME280;64845;53.086;5.834;2023-04-24T07:13:54;100062.84;;;7.85;83.30
76114;BME280;64845;53.086;5.834;2023-04-24T07:16:20;100066.38;;;7.85;83.24
76114;BME280;64845;53.086;5.834;2023-04-24T07:18:45;100085.94;;;7.84;83.08
76114;BME280;64845;53.086;5.834;2023-04-24T07:21:10;100082.41;;;7.84;83.03
76114;BME280;64845;53.086;5.834;2023-04-24T07:23:36;100103.72;;;7.82;83.31
76114;BME280;64845;53.086;5.834;2023-04-24T07:26:02;100101.13;;;7.81;83.04
76114;BME280;64845;53.086;5.834;2023-04-24T07:28:27;100121.50;;;7.80;83.14
76114;BME280;64845;53.086;5.834;2023-04-24T07:30:56;100102.91;;;7.80;82.84
76114;BME280;64845;53.086;5.834;2023-04-24T07:33:22;100113.63;;;7.79;82.78
76114;BME280;64845;53.086;5.834;2023-04-24T07:35:48;100120.03;;;7.73;82.78
76114;BME280;64845;53.086;5.834;2023-04-24T07:38:13;100108.72;;;7.68;82.48
76114;BME280;64845;53.086;5.834;2023-04-24T07:40:38;100117.72;;;7.64;82.47
76114;BME280;64845;53.086;5.834;2023-04-24T07:43:04;100119.56;;;7.62;82.47
76114;BME280;64845;53.086;5.834;2023-04-24T07:45:29;100137.22;;;7.64;82.53
76114;BME280;64845;53.086;5.834;2023-04-24T07:47:56;100146.09;;;7.63;82.45
76114;BME280;64845;53.086;5.834;2023-04-24T07:50:22;100138.06;;;7.65;82.26
76114;BME280;64845;53.086;5.834;2023-04-24T07:52:47;100140.72;;;7.65;82.52
76114;BME280;64845;53.086;5.834;2023-04-24T07:55:13;100147.66;;;7.69;82.01
76114;BME280;64845;53.086;5.834;2023-04-24T07:57:38;100155.50;;;7.72;82.25
76114;BME280;64845;53.086;5.834;2023-04-24T08:00:04;100158.91;;;7.76;81.83
76114;BME280;64845;53.086;5.834;2023-04-24T08:02:31;100163.22;;;7.78;82.05
76114;BME280;64845;53.086;5.834;2023-04-24T08:04:56;100154.19;;;7.84;81.92
76114;BME280;64845;53.086;5.834;2023-04-24T08:07:22;100162.00;;;7.87;81.98
76114;BME280;64845;53.086;5.834;2023-04-24T08:09:48;100161.69;;;7.95;81.91
76114;BME280;64845;53.086;5.834;2023-04-24T08:12:13;100181.00;;;8.00;81.59
76114;BME280;64845;53.086;5.834;2023-04-24T08:14:39;100164.94;;;8.03;81.43
76114;BME280;64845;53.086;5.834;2023-04-24T08:17:05;100177.31;;;8.04;81.58
76114;BME280;64845;53.086;5.834;2023-04-24T08:19:30;100181.81;;;8.02;81.48
76114;BME280;64845;53.086;5.834;2023-04-24T08:21:55;100189.00;;;8.00;81.26
76114;BME280;64845;53.086;5.834;2023-04-24T08:24:22;100193.44;;;7.99;81.15
76114;BME280;64845;53.086;5.834;2023-04-24T08:26:47;100198.69;;;8.01;81.16
76114;BME280;64845;53.086;5.834;2023-04-24T08:29:15;100194.19;;;8.03;80.89
76114;BME280;64845;53.086;5.834;2023-04-24T08:31:41;100211.94;;;8.02;81.03
76114;BME280;64845;53.086;5.834;2023-04-24T08:34:06;100204.91;;;8.01;81.08
76114;BME280;64845;53.086;5.834;2023-04-24T08:36:31;100219.03;;;8.02;80.87
76114;BME280;64845;53.086;5.834;2023-04-24T08:38:57;100211.03;;;8.04;80.85
76114;BME280;64845;53.086;5.834;2023-04-24T08:41:23;100222.41;;;8.07;80.84
76114;BME280;64845;53.086;5.834;2023-04-24T08:43:51;100222.28;;;8.10;80.47
76114;BME280;64845;53.086;5.834;2023-04-24T08:46:18;100230.00;;;8.16;80.40
76114;BME280;64845;53.086;5.834;2023-04-24T08:48:44;100229.69;;;8.24;80.21
76114;BME280;64845;53.086;5.834;2023-04-24T08:51:10;100234.91;;;8.27;80.26
76114;BME280;64845;53.086;5.834;2023-04-24T08:53:36;100239.91;;;8.35;79.85
76114;BME280;64845;53.086;5.834;2023-04-24T08:56:02;100249.59;;;8.38;79.85
76114;BME280;64845;53.086;5.834;2023-04-24T08:58:29;100245.94;;;8.40;79.01
76114;BME280;64845;53.086;5.834;2023-04-24T09:00:56;100249.22;;;8.47;78.85
76114;BME280;64845;53.086;5.834;2023-04-24T09:03:22;100266.91;;;8.50;78.22
76114;BME280;64845;53.086;5.834;2023-04-24T09:05:48;100280.94;;;8.53;78.07
76114;BME280;64845;53.086;5.834;2023-04-24T09:08:17;100252.38;;;8.58;78.08
76114;BME280;64845;53.086;5.834;2023-04-24T09:10:43;100259.31;;;8.63;77.52
76114;BME280;64845;53.086;5.834;2023-04-24T09:13:10;100262.63;;;8.68;77.22
76114;BME280;64845;53.086;5.834;2023-04-24T09:15:37;100265.25;;;8.69;77.23
76114;BME280;64845;53.086;5.834;2023-04-24T09:18:04;100273.34;;;8.66;77.17
76114;BME280;64845;53.086;5.834;2023-04-24T09:20:29;100281.53;;;8.61;77.02
76114;BME280;64845;53.086;5.834;2023-04-24T09:22:56;100274.59;;;8.57;76.66
76114;BME280;64845;53.086;5.834;2023-04-24T09:25:24;100296.84;;;8.55;76.72
76114;BME280;64845;53.086;5.834;2023-04-24T09:27:53;100291.69;;;8.50;76.91
76114;BME280;64845;53.086;5.834;2023-04-24T09:30:22;100294.56;;;8.44;76.83
76114;BME280;64845;53.086;5.834;2023-04-24T09:32:48;100299.94;;;8.42;76.82
76114;BME280;64845;53.086;5.834;2023-04-24T09:35:14;100298.22;;;8.41;76.30
76114;BME280;64845;53.086;5.834;2023-04-24T09:37:42;100303.63;;;8.40;76.73
76114;BME280;64845;53.086;5.834;2023-04-24T09:40:09;100317.94;;;8.36;76.37
76114;BME280;64845;53.086;5.834;2023-04-24T09:42:36;100309.28;;;8.30;76.45
76114;BME280;64845;53.086;5.834;2023-04-24T09:45:02;100317.47;;;8.24;76.15
76114;BME280;64845;53.086;5.834;2023-04-24T09:47:35;100323.75;;;8.23;76.23
76114;BME280;64845;53.086;5.834;2023-04-24T09:50:09;100320.13;;;8.24;76.14
76114;BME280;64845;53.086;5.834;2023-04-24T09:52:34;100331.72;;;8.23;75.83
76114;BME280;64845;53.086;5.834;2023-04-24T09:55:00;100328.88;;;8.28;75.94
76114;BME280;64845;53.086;5.834;2023-04-24T09:57:25;100333.94;;;8.34;76.24
76114;BME280;64845;53.086;5.834;2023-04-24T09:59:53;100339.16;;;8.37;76.16
76114;BME280;64845;53.086;5.834;2023-04-24T10:02:19;100338.25;;;8.38;76.19
76114;BME280;64845;53.086;5.834;2023-04-24T10:04:55;100346.91;;;8.43;76.03
76114;BME280;64845;53.086;5.834;2023-04-24T10:07:21;100375.16;;;8.47;75.99
76114;BME280;64845;53.086;5.834;2023-04-24T10:09:47;100359.19;;;8.47;76.35
76114;BME280;64845;53.086;5.834;2023-04-24T10:12:12;100357.50;;;8.45;75.87
76114;BME280;64845;53.086;5.834;2023-04-24T10:14:38;100366.41;;;8.44;75.94
76114;BME280;64845;53.086;5.834;2023-04-24T10:17:05;100366.34;;;8.45;75.91
76114;BME280;64845;53.086;5.834;2023-04-24T10:19:31;100368.03;;;8.50;75.74
76114;BME280;64845;53.086;5.834;2023-04-24T10:21:58;100366.94;;;8.54;76.17
76114;BME280;64845;53.086;5.834;2023-04-24T10:24:23;100368.56;;;8.58;76.09
76114;BME280;64845;53.086;5.834;2023-04-24T10:26:48;100378.09;;;8.64;75.60
76114;BME280;64845;53.086;5.834;2023-04-24T10:29:16;100391.25;;;8.68;75.54
76114;BME280;64845;53.086;5.834;2023-04-24T10:31:42;100385.97;;;8.67;75.73
76114;BME280;64845;53.086;5.834;2023-04-24T10:34:10;100379.81;;;8.66;74.91
76114;BME280;64845;53.086;5.834;2023-04-24T10:36:41;100384.13;;;8.69;74.75
76114;BME280;64845;53.086;5.834;2023-04-24T10:39:10;100393.66;;;8.74;75.11
76114;BME280;64845;53.086;5.834;2023-04-24T10:41:39;100390.84;;;8.79;74.97
76114;BME280;64845;53.086;5.834;2023-04-24T10:44:12;100396.84;;;8.84;74.93
76114;BME280;64845;53.086;5.834;2023-04-24T10:46:39;100396.09;;;8.81;74.93
76114;BME280;64845;53.086;5.834;2023-04-24T10:49:08;100406.94;;;8.76;74.77
76114;BME280;64845;53.086;5.834;2023-04-24T10:54:26;100409.66;;;8.51;74.56
76114;BME280;64845;53.086;5.834;2023-04-24T10:56:52;100419.56;;;8.45;74.34
76114;BME280;64845;53.086;5.834;2023-04-24T10:59:34;100424.16;;;8.42;74.14
76114;BME280;64845;53.086;5.834;2023-04-24T11:02:00;100425.28;;;8.35;73.59
76114;BME280;64845;53.086;5.834;2023-04-24T11:04:29;100427.03;;;8.36;73.45
76114;BME280;64845;53.086;5.834;2023-04-24T11:06:55;100427.88;;;8.36;73.38
76114;BME280;64845;53.086;5.834;2023-04-24T11:09:21;100424.28;;;8.37;73.02
76114;BME280;64845;53.086;5.834;2023-04-24T11:11:47;100448.09;;;8.42;73.34
76114;BME280;64845;53.086;5.834;2023-04-24T11:14:16;100429.41;;;8.43;72.76
76114;BME280;64845;53.086;5.834;2023-04-24T11:16:42;100433.53;;;8.52;72.82
76114;BME280;64845;53.086;5.834;2023-04-24T11:19:18;100429.78;;;8.58;72.86
76114;BME280;64845;53.086;5.834;2023-04-24T11:24:32;100429.50;;;8.66;72.65
76114;BME280;64845;53.086;5.834;2023-04-24T11:27:05;100436.25;;;8.74;72.96
76114;BME280;64845;53.086;5.834;2023-04-24T11:29:47;100443.03;;;8.83;73.09
76114;BME280;64845;53.086;5.834;2023-04-24T11:35:05;100437.47;;;8.89;72.59
76114;BME280;64845;53.086;5.834;2023-04-24T11:37:38;100444.31;;;8.97;73.11
76114;BME280;64845;53.086;5.834;2023-04-24T11:40:12;100444.00;;;9.04;72.96
76114;BME280;64845;53.086;5.834;2023-04-24T11:42:39;100449.16;;;9.09;72.42
76114;BME280;64845;53.086;5.834;2023-04-24T11:45:20;100440.31;;;9.09;72.06
76114;BME280;64845;53.086;5.834;2023-04-24T11:47:46;100446.56;;;9.07;71.91
76114;BME280;64845;53.086;5.834;2023-04-24T11:50:14;100466.97;;;9.07;71.60
76114;BME280;64845;53.086;5.834;2023-04-24T11:52:41;100452.81;;;9.06;71.93
76114;BME280;64845;53.086;5.834;2023-04-24T11:55:07;100454.72;;;9.03;72.04
76114;BME280;64845;53.086;5.834;2023-04-24T11:57:34;100455.81;;;8.97;71.65
76114;BME280;64845;53.086;5.834;2023-04-24T12:00:03;100458.66;;;8.92;71.69
76114;BME280;64845;53.086;5.834;2023-04-24T12:02:33;100463.13;;;8.92;72.11
76114;BME280;64845;53.086;5.834;2023-04-24T12:04:58;100462.31;;;8.90;71.99
76114;BME280;64845;53.086;5.834;2023-04-24T12:07:23;100466.78;;;8.89;71.44
76114;BME280;64845;53.086;5.834;2023-04-24T12:09:59;100463.13;;;8.92;71.85
76114;BME280;64845;53.086;5.834;2023-04-24T12:12:26;100469.31;;;8.92;72.30
76114;BME280;64845;53.086;5.834;2023-04-24T12:14:56;100469.13;;;8.97;72.37
76114;BME280;64845;53.086;5.834;2023-04-24T12:17:30;100471.66;;;9.02;72.70
76114;BME280;64845;53.086;5.834;2023-04-24T12:20:03;100478.53;;;9.07;72.34
76114;BME280;64845;53.086;5.834;2023-04-24T12:25:18;100483.25;;;9.23;72.13
76114;BME280;64845;53.086;5.834;2023-04-24T12:27:45;100478.72;;;9.25;72.16
76114;BME280;64845;53.086;5.834;2023-04-24T12:30:15;100511.25;;;9.33;71.79
76114;BME280;64845;53.086;5.834;2023-04-24T12:32:45;100498.75;;;9.35;71.40
76114;BME280;64845;53.086;5.834;2023-04-24T12:35:11;100502.41;;;9.33;70.87
76114;BME280;64845;53.086;5.834;2023-04-24T12:37:36;100506.06;;;9.30;70.92
76114;BME280;64845;53.086;5.834;2023-04-24T12:40:09;100508.88;;;9.26;71.14
76114;BME280;64845;53.086;5.834;2023-04-24T12:42:42;100522.41;;;9.21;71.21
76114;BME280;64845;53.086;5.834;2023-04-24T12:45:08;100519.03;;;9.16;70.73
76114;BME280;64845;53.086;5.834;2023-04-24T12:47:34;100517.47;;;9.10;70.89
76114;BME280;64845;53.086;5.834;2023-04-24T12:50:01;100518.50;;;9.06;70.56
76114;BME280;64845;53.086;5.834;2023-04-24T12:52:28;100523.91;;;9.04;71.18
76114;BME280;64845;53.086;5.834;2023-04-24T12:54:57;100520.13;;;9.10;71.14
76114;BME280;64845;53.086;5.834;2023-04-24T12:57:23;100526.97;;;9.17;71.20
76114;BME280;64845;53.086;5.834;2023-04-24T12:59:49;100519.81;;;9.19;70.84
76114;BME280;64845;53.086;5.834;2023-04-24T13:02:14;100527.84;;;9.18;71.44
76114;BME280;64845;53.086;5.834;2023-04-24T13:04:44;100518.81;;;9.22;71.42
76114;BME280;64845;53.086;5.834;2023-04-24T13:07:10;100521.97;;;9.32;71.39
76114;BME280;64845;53.086;5.834;2023-04-24T13:09:35;100524.47;;;9.36;71.05
76114;BME280;64845;53.086;5.834;2023-04-24T13:12:01;100522.72;;;9.35;71.02